EKSP/SKS METAR and TAF weather

Enter ICAO airport designator
Station Type Date Time Source
EKSP METAR 2018/01/23 01:20 UTC NOAA

EKSP 230120Z 17003KT 4000 BR BKN016 01/M00 Q1014


Station Type Date Time Source
EKSP Decoded METAR 2018/01/23 01:20 UTC NOAA

Skrydstrup, Denmark (EKSP) 55-14N 009-16E 47M
Jan 22, 2018 - 08:20 PM EST / 2018.01.23 0120 UTC
Wind: from the S (170 degrees) at 3 MPH (3 KT):0
Visibility: 2 mile(s):0
Sky conditions: mostly cloudy
Weather: mist
Temperature: 33 F (1 C)
Dew Point: 32 F (0 C)
Relative Humidity: 93%
Pressure (altimeter): 29.94 in. Hg (1014 hPa)
ob: EKSP 230120Z 17003KT 4000 BR BKN016 01/M00 Q1014
cycle: 1

Station Type Date Time Source
EKSP TAF 2018/01/22 21:30 UTC NOAA

TAF EKSP 222025Z 2221/2318 12008KT 8000 SCT008 BKN015
TEMPO 2221/2307 2000 -SN BR BKN006 PROB40
TEMPO 2303/2307 -FZRADZ
TEMPO 2307/2314 1200 BR BKN002
BECMG 2316/2318 19015KT 4000 -RA BKN004


Example: see airport list